KOSH/OSH METAR and TAF weather

Enter ICAO airport designator
Station Type Date Time Source
KOSH METAR 2020/06/03 15:53 UTC NOAA

KOSH 031553Z VRB04KT 10SM CLR 25/16 A2983 RMK AO2 SLP090 T02500161


Station Type Date Time Source
KOSH Decoded METAR 2020/06/03 15:53 UTC NOAA

WITTMAN REGIONAL AIRPORT, WI, United States (KOSH) 43-58N 88-33W 248M
Jun 03, 2020 - 11:53 AM EDT / 2020.06.03 1553 UTC
Wind: Variable at 5 MPH (4 KT):0
Visibility: 10 mile(s):0
Sky conditions: clear
Temperature: 77.0 F (25.0 C)
Dew Point: 61.0 F (16.1 C)
Relative Humidity: 57%
Pressure (altimeter): 29.83 in. Hg (1010 hPa)
ob: KOSH 031553Z VRB04KT 10SM CLR 25/16 A2983 RMK AO2 SLP090 T02500161
cycle: 16

Station Type Date Time Source
KOSH TAF 2019/07/30 12:39 UTC NOAA

TAF KOSH 301136Z 3012/3112 36006KT P6SM BKN050
TEMPO 3015/3017 BKN025
FM301700 01006KT P6SM BKN035
FM302200 04005KT P6SM SCT045
FM310200 11003KT P6SM SKC
FM310900 VRB03KT 6SM BR SKC

Example: see airport list